首页
METAR-TAF:

METAR-TAF

机场 :

白原, 紐約州, 美国

纬度: 41-04-01N, 经度: 073-42-27W, 海拔: 134米

当前天气观测

该预报发布于45分钟前的18:56 UTC
风速17节,风向西北,有时为24节阵风
温度 6°C
湿度 31%
气压 1022 hPa
能見度: 16.1公里
少量云层高于4000英尺

METAR: KHPN 191856Z 32017G24KT 10SM FEW040 06/M10 A3018 RMK AO2 PK WND 31033/1824 SLP224 T00611100

时间: 14:41 (19:41 UTC)

预报

该预报发布于7分钟前的19:34 UTC
预报有效从19日的 20点(UTC)到 20日的 18点(UTC)
风速18节,风向西转西北,有时为27节阵风
能見度: 10公里
少量云层高于5000英尺
从 20日的 0000点(UTC)
风速11节,风向西北
能見度: 10公里
少量云层高于5000英尺
从 20日的 0400点(UTC)
风速6节,风向西转西北
能見度: 10公里
少量云层高于5000英尺
散云层高于25000英尺
从 20日的 1400点(UTC)
风速8节,风向西北
能見度: 10公里
少量云层高于6000英尺
多云层高于15000英尺

TAF: KHPN 191934Z 1920/2018 30018G27KT P6SM FEW050 FM200000 31011KT P6SM FEW050 FM200400 30006KT P6SM FEW050 SCT250 FM201400 31008KT P6SM FEW060 BKN150 AMD NOT SKED

超过4000个机场的气象观测和天气预报(METAR&TAF报告)。

可查询的气象台以黄色和红色小点在地图上表示。

将鼠标移到小点上方,可查看气象台名称。

然后点击查看天气观测和预报。

如需切换地图:点击带黑十字的绿色按钮放大地图;点击带横线的绿色按钮缩小地图;或者点击绿色箭头查看邻近地区的地图。


METAR-TAF: